sensor_id;sensor_type;location;lat;lon;timestamp;pressure;altitude;pressure_sealevel;temperature;humidity
37856;BME280;23694;43.274;26.924;2023-03-16T00:00:43;97855.53;;;7.57;76.59
37856;BME280;23694;43.274;26.924;2023-03-16T00:03:10;97854.22;;;7.52;78.09
37856;BME280;23694;43.274;26.924;2023-03-16T00:05:37;97851.50;;;7.53;78.62
37856;BME280;23694;43.274;26.924;2023-03-16T00:08:03;97864.25;;;7.45;79.64
37856;BME280;23694;43.274;26.924;2023-03-16T00:10:29;97861.94;;;7.29;80.55
37856;BME280;23694;43.274;26.924;2023-03-16T00:12:56;97852.72;;;7.37;80.86
37856;BME280;23694;43.274;26.924;2023-03-16T00:15:22;97861.66;;;7.45;81.03
37856;BME280;23694;43.274;26.924;2023-03-16T00:17:48;97858.94;;;7.47;81.85
37856;BME280;23694;43.274;26.924;2023-03-16T00:20:15;97838.31;;;7.44;82.11
37856;BME280;23694;43.274;26.924;2023-03-16T00:22:43;97844.69;;;7.40;82.02
37856;BME280;23694;43.274;26.924;2023-03-16T00:25:10;97844.97;;;7.48;80.65
37856;BME280;23694;43.274;26.924;2023-03-16T00:27:37;97854.19;;;7.41;81.09
37856;BME280;23694;43.274;26.924;2023-03-16T00:30:04;97846.75;;;7.47;80.83
37856;BME280;23694;43.274;26.924;2023-03-16T00:32:35;97847.16;;;7.65;79.86
37856;BME280;23694;43.274;26.924;2023-03-16T00:35:02;97850.63;;;7.77;79.60
37856;BME280;23694;43.274;26.924;2023-03-16T00:37:29;97853.00;;;7.80;79.27
37856;BME280;23694;43.274;26.924;2023-03-16T00:39:55;97853.97;;;7.79;79.06
37856;BME280;23694;43.274;26.924;2023-03-16T00:42:25;97856.50;;;7.91;78.04
37856;BME280;23694;43.274;26.924;2023-03-16T00:44:53;97847.41;;;7.97;76.70
37856;BME280;23694;43.274;26.924;2023-03-16T00:47:27;97855.00;;;8.00;75.22
37856;BME280;23694;43.274;26.924;2023-03-16T00:49:54;97851.09;;;8.06;73.46
37856;BME280;23694;43.274;26.924;2023-03-16T00:52:20;97853.34;;;8.10;72.76
37856;BME280;23694;43.274;26.924;2023-03-16T00:54:48;97847.75;;;8.04;72.56
37856;BME280;23694;43.274;26.924;2023-03-16T00:57:16;97849.88;;;7.99;72.08
37856;BME280;23694;43.274;26.924;2023-03-16T00:59:46;97853.31;;;7.99;72.15
37856;BME280;23694;43.274;26.924;2023-03-16T01:02:14;97855.00;;;8.00;71.61
37856;BME280;23694;43.274;26.924;2023-03-16T01:04:42;97850.69;;;7.88;71.86
37856;BME280;23694;43.274;26.924;2023-03-16T01:07:11;97854.03;;;7.90;71.63
37856;BME280;23694;43.274;26.924;2023-03-16T01:09:41;97855.91;;;7.88;70.99
37856;BME280;23694;43.274;26.924;2023-03-16T01:12:11;97858.75;;;7.85;70.34
37856;BME280;23694;43.274;26.924;2023-03-16T01:14:38;97859.56;;;7.85;69.72
37856;BME280;23694;43.274;26.924;2023-03-16T01:17:05;97857.19;;;7.82;69.09
37856;BME280;23694;43.274;26.924;2023-03-16T01:19:35;97854.72;;;7.81;69.14
37856;BME280;23694;43.274;26.924;2023-03-16T01:22:03;97857.47;;;7.67;69.66
37856;BME280;23694;43.274;26.924;2023-03-16T01:24:29;97860.91;;;7.67;70.08
37856;BME280;23694;43.274;26.924;2023-03-16T01:26:55;97855.81;;;7.66;69.82
37856;BME280;23694;43.274;26.924;2023-03-16T01:29:21;97864.94;;;7.71;70.28
37856;BME280;23694;43.274;26.924;2023-03-16T01:31:48;97863.50;;;7.67;70.29
37856;BME280;23694;43.274;26.924;2023-03-16T01:34:17;97860.66;;;7.59;70.87
37856;BME280;23694;43.274;26.924;2023-03-16T01:36:46;97863.75;;;7.64;71.41
37856;BME280;23694;43.274;26.924;2023-03-16T01:39:13;97861.41;;;7.72;71.35
37856;BME280;23694;43.274;26.924;2023-03-16T01:41:39;97867.66;;;7.70;71.59
37856;BME280;23694;43.274;26.924;2023-03-16T01:44:14;97870.69;;;7.28;73.41
37856;BME280;23694;43.274;26.924;2023-03-16T01:46:41;97874.69;;;7.45;73.14
37856;BME280;23694;43.274;26.924;2023-03-16T01:49:19;97874.72;;;7.56;72.99
37856;BME280;23694;43.274;26.924;2023-03-16T01:51:49;97879.59;;;7.61;72.59
37856;BME280;23694;43.274;26.924;2023-03-16T01:54:38;97890.38;;;6.83;75.88
37856;BME280;23694;43.274;26.924;2023-03-16T01:57:09;97895.59;;;6.83;81.05
37856;BME280;23694;43.274;26.924;2023-03-16T01:59:56;97881.66;;;6.33;91.36
37856;BME280;23694;43.274;26.924;2023-03-16T02:02:29;97886.44;;;6.40;94.09
37856;BME280;23694;43.274;26.924;2023-03-16T02:07:40;97898.72;;;6.76;93.32
37856;BME280;23694;43.274;26.924;2023-03-16T02:10:09;97895.81;;;6.80;93.73
37856;BME280;23694;43.274;26.924;2023-03-16T02:12:37;97903.13;;;6.62;95.44
37856;BME280;23694;43.274;26.924;2023-03-16T02:15:03;97887.81;;;6.45;96.56
37856;BME280;23694;43.274;26.924;2023-03-16T02:17:31;97908.41;;;6.48;96.84
37856;BME280;23694;43.274;26.924;2023-03-16T02:22:55;97902.78;;;6.42;98.87
37856;BME280;23694;43.274;26.924;2023-03-16T02:25:24;97903.97;;;6.50;98.59
37856;BME280;23694;43.274;26.924;2023-03-16T02:28:06;97896.22;;;6.49;98.11
37856;BME280;23694;43.274;26.924;2023-03-16T02:30:35;97900.50;;;6.50;98.70
37856;BME280;23694;43.274;26.924;2023-03-16T02:33:02;97901.44;;;6.36;99.00
37856;BME280;23694;43.274;26.924;2023-03-16T02:35:30;97896.03;;;6.39;98.74
37856;BME280;23694;43.274;26.924;2023-03-16T02:37:57;97907.19;;;6.54;98.79
37856;BME280;23694;43.274;26.924;2023-03-16T02:40:25;97900.00;;;6.57;98.30
37856;BME280;23694;43.274;26.924;2023-03-16T02:43:01;97900.91;;;6.69;97.15
37856;BME280;23694;43.274;26.924;2023-03-16T02:45:40;97907.06;;;6.68;97.51
37856;BME280;23694;43.274;26.924;2023-03-16T02:48:12;97903.44;;;6.58;98.01
37856;BME280;23694;43.274;26.924;2023-03-16T02:50:47;97917.38;;;6.57;98.18
37856;BME280;23694;43.274;26.924;2023-03-16T02:53:14;97910.16;;;6.48;98.97
37856;BME280;23694;43.274;26.924;2023-03-16T02:55:40;97905.06;;;6.46;99.80
37856;BME280;23694;43.274;26.924;2023-03-16T02:58:07;97911.00;;;6.48;100.00
37856;BME280;23694;43.274;26.924;2023-03-16T03:00:33;97913.22;;;6.54;100.00
37856;BME280;23694;43.274;26.924;2023-03-16T03:02:59;97918.91;;;6.34;100.00
37856;BME280;23694;43.274;26.924;2023-03-16T03:05:25;97920.16;;;6.16;100.00
37856;BME280;23694;43.274;26.924;2023-03-16T03:07:51;97919.19;;;6.04;100.00
37856;BME280;23694;43.274;26.924;2023-03-16T03:10:17;97919.94;;;6.06;100.00
37856;BME280;23694;43.274;26.924;2023-03-16T03:12:44;97917.44;;;6.04;100.00
37856;BME280;23694;43.274;26.924;2023-03-16T03:15:15;97926.31;;;5.88;100.00
37856;BME280;23694;43.274;26.924;2023-03-16T03:17:41;97925.94;;;5.94;100.00
37856;BME280;23694;43.274;26.924;2023-03-16T03:20:09;97929.19;;;6.10;100.00
37856;BME280;23694;43.274;26.924;2023-03-16T03:22:43;97926.03;;;5.92;100.00
37856;BME280;23694;43.274;26.924;2023-03-16T03:25:11;97936.53;;;5.91;100.00
37856;BME280;23694;43.274;26.924;2023-03-16T03:27:40;97937.06;;;5.96;100.00
37856;BME280;23694;43.274;26.924;2023-03-16T03:30:11;97936.88;;;6.12;100.00
37856;BME280;23694;43.274;26.924;2023-03-16T03:32:39;97938.88;;;6.33;100.00
37856;BME280;23694;43.274;26.924;2023-03-16T03:35:06;97939.91;;;6.31;100.00
37856;BME280;23694;43.274;26.924;2023-03-16T03:37:32;97945.97;;;6.44;100.00
37856;BME280;23694;43.274;26.924;2023-03-16T03:39:58;97945.69;;;6.61;100.00
37856;BME280;23694;43.274;26.924;2023-03-16T03:42:25;97937.03;;;6.61;100.00
37856;BME280;23694;43.274;26.924;2023-03-16T03:44:51;97937.47;;;6.67;100.00
37856;BME280;23694;43.274;26.924;2023-03-16T03:47:18;97936.41;;;6.83;100.00
37856;BME280;23694;43.274;26.924;2023-03-16T03:49:44;97946.38;;;6.89;100.00
37856;BME280;23694;43.274;26.924;2023-03-16T03:52:11;97953.13;;;7.04;100.00
37856;BME280;23694;43.274;26.924;2023-03-16T03:54:37;97959.56;;;7.11;100.00
37856;BME280;23694;43.274;26.924;2023-03-16T03:57:04;97949.25;;;7.10;98.35
37856;BME280;23694;43.274;26.924;2023-03-16T03:59:30;97957.41;;;7.05;98.43
37856;BME280;23694;43.274;26.924;2023-03-16T04:01:56;97959.91;;;7.07;98.22
37856;BME280;23694;43.274;26.924;2023-03-16T04:04:23;97969.09;;;6.87;99.51
37856;BME280;23694;43.274;26.924;2023-03-16T04:06:49;97971.28;;;6.80;99.55
37856;BME280;23694;43.274;26.924;2023-03-16T04:09:16;97973.25;;;6.89;99.13
37856;BME280;23694;43.274;26.924;2023-03-16T04:11:42;97973.97;;;7.04;98.54
37856;BME280;23694;43.274;26.924;2023-03-16T04:14:08;97978.53;;;7.13;96.44
37856;BME280;23694;43.274;26.924;2023-03-16T04:16:34;97983.72;;;7.13;93.69
37856;BME280;23694;43.274;26.924;2023-03-16T04:19:01;97986.97;;;7.04;90.46
37856;BME280;23694;43.274;26.924;2023-03-16T04:21:27;97987.50;;;7.09;85.83
37856;BME280;23694;43.274;26.924;2023-03-16T04:23:53;97989.50;;;7.18;83.21
37856;BME280;23694;43.274;26.924;2023-03-16T04:26:20;98003.09;;;7.35;80.30
37856;BME280;23694;43.274;26.924;2023-03-16T04:28:46;98001.53;;;7.32;78.73
37856;BME280;23694;43.274;26.924;2023-03-16T04:31:13;98006.84;;;7.43;77.89
37856;BME280;23694;43.274;26.924;2023-03-16T04:33:39;98004.25;;;7.30;78.54
37856;BME280;23694;43.274;26.924;2023-03-16T04:36:07;98007.69;;;7.31;78.77
37856;BME280;23694;43.274;26.924;2023-03-16T04:38:34;98015.94;;;7.25;78.81
37856;BME280;23694;43.274;26.924;2023-03-16T04:41:01;98020.09;;;7.27;79.28
37856;BME280;23694;43.274;26.924;2023-03-16T04:43:28;98018.22;;;7.29;78.59
37856;BME280;23694;43.274;26.924;2023-03-16T04:45:55;98028.09;;;7.12;79.42
37856;BME280;23694;43.274;26.924;2023-03-16T04:48:21;98028.13;;;7.24;79.12
37856;BME280;23694;43.274;26.924;2023-03-16T04:50:47;98029.38;;;7.19;79.42
37856;BME280;23694;43.274;26.924;2023-03-16T04:53:13;98037.59;;;7.38;79.05
37856;BME280;23694;43.274;26.924;2023-03-16T04:55:39;98031.38;;;7.15;79.07
37856;BME280;23694;43.274;26.924;2023-03-16T04:58:06;98036.78;;;7.25;78.83
37856;BME280;23694;43.274;26.924;2023-03-16T05:00:32;98046.34;;;7.24;79.09
37856;BME280;23694;43.274;26.924;2023-03-16T05:02:58;98055.94;;;7.24;79.60
37856;BME280;23694;43.274;26.924;2023-03-16T05:05:24;98065.94;;;7.30;80.56
37856;BME280;23694;43.274;26.924;2023-03-16T05:07:50;98070.41;;;7.28;80.86
37856;BME280;23694;43.274;26.924;2023-03-16T05:10:17;98066.13;;;7.40;81.85
37856;BME280;23694;43.274;26.924;2023-03-16T05:12:46;98072.38;;;7.50;81.66
37856;BME280;23694;43.274;26.924;2023-03-16T05:15:13;98067.81;;;7.41;81.39
37856;BME280;23694;43.274;26.924;2023-03-16T05:17:40;98078.94;;;7.55;81.54
37856;BME280;23694;43.274;26.924;2023-03-16T05:20:10;98084.44;;;7.63;82.49
37856;BME280;23694;43.274;26.924;2023-03-16T05:22:41;98097.34;;;7.65;81.06
37856;BME280;23694;43.274;26.924;2023-03-16T05:25:08;98101.72;;;7.77;80.00
37856;BME280;23694;43.274;26.924;2023-03-16T05:27:44;98097.44;;;7.89;80.14
37856;BME280;23694;43.274;26.924;2023-03-16T05:30:11;98096.06;;;7.96;79.66
37856;BME280;23694;43.274;26.924;2023-03-16T05:32:38;98095.88;;;7.86;80.00
37856;BME280;23694;43.274;26.924;2023-03-16T05:35:05;98106.38;;;7.98;79.45
37856;BME280;23694;43.274;26.924;2023-03-16T05:37:32;98098.94;;;8.04;79.18
37856;BME280;23694;43.274;26.924;2023-03-16T05:40:07;98111.16;;;8.04;78.97
37856;BME280;23694;43.274;26.924;2023-03-16T05:42:46;98116.41;;;7.91;79.73
37856;BME280;23694;43.274;26.924;2023-03-16T05:45:13;98110.69;;;7.86;79.95
37856;BME280;23694;43.274;26.924;2023-03-16T05:47:40;98117.84;;;7.95;79.74
37856;BME280;23694;43.274;26.924;2023-03-16T05:50:08;98131.19;;;8.03;78.55
37856;BME280;23694;43.274;26.924;2023-03-16T05:52:39;98129.25;;;7.81;79.23
37856;BME280;23694;43.274;26.924;2023-03-16T05:55:06;98137.28;;;7.91;79.49
37856;BME280;23694;43.274;26.924;2023-03-16T05:57:33;98144.34;;;8.02;79.03
37856;BME280;23694;43.274;26.924;2023-03-16T06:00:00;98148.09;;;7.98;78.08
37856;BME280;23694;43.274;26.924;2023-03-16T06:02:27;98148.22;;;7.96;77.92
37856;BME280;23694;43.274;26.924;2023-03-16T06:04:53;98145.91;;;8.04;77.77
37856;BME280;23694;43.274;26.924;2023-03-16T06:07:19;98148.31;;;7.94;78.76
37856;BME280;23694;43.274;26.924;2023-03-16T06:09:45;98161.13;;;7.98;79.02
37856;BME280;23694;43.274;26.924;2023-03-16T06:12:12;98155.63;;;7.89;79.81
37856;BME280;23694;43.274;26.924;2023-03-16T06:14:38;98165.13;;;7.90;79.88
37856;BME280;23694;43.274;26.924;2023-03-16T06:17:04;98162.28;;;7.93;80.17
37856;BME280;23694;43.274;26.924;2023-03-16T06:19:30;98166.38;;;7.85;81.00
37856;BME280;23694;43.274;26.924;2023-03-16T06:21:56;98168.25;;;7.83;80.80
37856;BME280;23694;43.274;26.924;2023-03-16T06:24:22;98171.81;;;7.82;81.05
37856;BME280;23694;43.274;26.924;2023-03-16T06:26:48;98184.72;;;7.96;80.98
37856;BME280;23694;43.274;26.924;2023-03-16T06:29:15;98186.50;;;7.95;81.84
37856;BME280;23694;43.274;26.924;2023-03-16T06:31:41;98183.56;;;8.00;81.80
37856;BME280;23694;43.274;26.924;2023-03-16T06:34:07;98184.94;;;7.80;82.75
37856;BME280;23694;43.274;26.924;2023-03-16T06:36:33;98188.81;;;7.87;83.63
37856;BME280;23694;43.274;26.924;2023-03-16T06:38:59;98189.00;;;7.97;83.83
37856;BME280;23694;43.274;26.924;2023-03-16T06:41:25;98186.78;;;8.04;83.57
37856;BME280;23694;43.274;26.924;2023-03-16T06:43:51;98192.75;;;7.93;84.77
37856;BME280;23694;43.274;26.924;2023-03-16T06:46:17;98195.47;;;7.91;86.07
37856;BME280;23694;43.274;26.924;2023-03-16T06:48:43;98199.41;;;7.97;85.74
37856;BME280;23694;43.274;26.924;2023-03-16T06:51:12;98197.13;;;7.92;85.72
37856;BME280;23694;43.274;26.924;2023-03-16T06:53:38;98203.06;;;7.94;85.10
37856;BME280;23694;43.274;26.924;2023-03-16T06:56:04;98205.47;;;7.98;85.09
37856;BME280;23694;43.274;26.924;2023-03-16T06:58:30;98199.81;;;8.04;85.08
37856;BME280;23694;43.274;26.924;2023-03-16T07:01:00;98197.66;;;7.85;86.14
37856;BME280;23694;43.274;26.924;2023-03-16T07:03:26;98199.94;;;8.02;84.10
37856;BME280;23694;43.274;26.924;2023-03-16T07:05:52;98202.66;;;7.75;85.92
37856;BME280;23694;43.274;26.924;2023-03-16T07:08:19;98205.69;;;7.69;86.11
37856;BME280;23694;43.274;26.924;2023-03-16T07:10:45;98203.78;;;7.71;86.37
37856;BME280;23694;43.274;26.924;2023-03-16T07:13:11;98206.91;;;7.76;85.76
37856;BME280;23694;43.274;26.924;2023-03-16T07:15:37;98201.09;;;7.73;86.36
37856;BME280;23694;43.274;26.924;2023-03-16T07:18:03;98207.66;;;7.78;86.40
37856;BME280;23694;43.274;26.924;2023-03-16T07:20:29;98204.63;;;7.72;87.82
37856;BME280;23694;43.274;26.924;2023-03-16T07:22:57;98204.53;;;7.60;88.04
37856;BME280;23694;43.274;26.924;2023-03-16T07:25:23;98203.81;;;7.58;88.18
37856;BME280;23694;43.274;26.924;2023-03-16T07:27:49;98205.88;;;7.53;88.52
37856;BME280;23694;43.274;26.924;2023-03-16T07:30:16;98214.22;;;7.58;87.91
37856;BME280;23694;43.274;26.924;2023-03-16T07:32:42;98209.44;;;7.52;87.32
37856;BME280;23694;43.274;26.924;2023-03-16T07:35:09;98224.53;;;7.47;87.10
37856;BME280;23694;43.274;26.924;2023-03-16T07:37:36;98222.44;;;7.27;88.03
37856;BME280;23694;43.274;26.924;2023-03-16T07:40:03;98233.91;;;7.37;90.60
37856;BME280;23694;43.274;26.924;2023-03-16T07:42:29;98236.53;;;7.50;90.78
37856;BME280;23694;43.274;26.924;2023-03-16T07:44:55;98243.41;;;7.51;89.19
37856;BME280;23694;43.274;26.924;2023-03-16T07:47:22;98242.25;;;7.55;89.66
37856;BME280;23694;43.274;26.924;2023-03-16T07:49:49;98241.22;;;7.57;90.18
37856;BME280;23694;43.274;26.924;2023-03-16T07:52:15;98243.94;;;7.69;91.07
37856;BME280;23694;43.274;26.924;2023-03-16T07:54:41;98249.25;;;7.42;91.65
37856;BME280;23694;43.274;26.924;2023-03-16T07:57:08;98249.66;;;7.36;92.04
37856;BME280;23694;43.274;26.924;2023-03-16T07:59:34;98247.44;;;7.29;91.61
37856;BME280;23694;43.274;26.924;2023-03-16T08:02:00;98260.16;;;7.34;92.42
37856;BME280;23694;43.274;26.924;2023-03-16T08:04:26;98267.25;;;7.32;92.49
37856;BME280;23694;43.274;26.924;2023-03-16T08:06:52;98256.63;;;7.35;93.67
37856;BME280;23694;43.274;26.924;2023-03-16T08:09:25;98261.84;;;7.35;94.06
37856;BME280;23694;43.274;26.924;2023-03-16T08:11:52;98261.53;;;7.40;94.26
37856;BME280;23694;43.274;26.924;2023-03-16T08:14:18;98265.91;;;7.39;94.44
37856;BME280;23694;43.274;26.924;2023-03-16T08:16:44;98269.13;;;7.30;94.77
37856;BME280;23694;43.274;26.924;2023-03-16T08:19:11;98271.19;;;7.25;95.56
37856;BME280;23694;43.274;26.924;2023-03-16T08:21:37;98267.59;;;7.13;95.51
37856;BME280;23694;43.274;26.924;2023-03-16T08:24:04;98267.25;;;7.05;97.22
37856;BME280;23694;43.274;26.924;2023-03-16T08:26:31;98277.75;;;7.04;97.68
37856;BME280;23694;43.274;26.924;2023-03-16T08:28:57;98279.53;;;7.03;97.73
37856;BME280;23694;43.274;26.924;2023-03-16T08:31:27;98285.53;;;6.91;97.79
37856;BME280;23694;43.274;26.924;2023-03-16T08:33:53;98292.59;;;6.89;97.25
37856;BME280;23694;43.274;26.924;2023-03-16T08:36:19;98296.88;;;6.90;96.61
37856;BME280;23694;43.274;26.924;2023-03-16T08:38:45;98290.38;;;6.83;96.35
37856;BME280;23694;43.274;26.924;2023-03-16T08:41:12;98302.66;;;6.81;96.55
37856;BME280;23694;43.274;26.924;2023-03-16T08:43:41;98299.47;;;6.90;95.56
37856;BME280;23694;43.274;26.924;2023-03-16T08:46:07;98303.22;;;6.86;95.72
37856;BME280;23694;43.274;26.924;2023-03-16T08:48:33;98315.34;;;6.73;96.04
37856;BME280;23694;43.274;26.924;2023-03-16T08:51:03;98314.63;;;6.56;98.26
37856;BME280;23694;43.274;26.924;2023-03-16T08:53:30;98322.22;;;6.59;99.11
37856;BME280;23694;43.274;26.924;2023-03-16T08:56:01;98308.56;;;6.42;100.00
37856;BME280;23694;43.274;26.924;2023-03-16T08:58:30;98319.81;;;6.42;99.94
37856;BME280;23694;43.274;26.924;2023-03-16T09:00:58;98317.59;;;6.50;99.59
37856;BME280;23694;43.274;26.924;2023-03-16T09:03:24;98321.94;;;6.64;99.36
37856;BME280;23694;43.274;26.924;2023-03-16T09:05:51;98333.19;;;6.64;98.46
37856;BME280;23694;43.274;26.924;2023-03-16T09:08:18;98337.09;;;6.72;97.65
37856;BME280;23694;43.274;26.924;2023-03-16T09:10:44;98341.00;;;6.64;98.74
37856;BME280;23694;43.274;26.924;2023-03-16T09:13:11;98333.38;;;6.47;99.51
37856;BME280;23694;43.274;26.924;2023-03-16T09:15:38;98338.69;;;6.60;99.42
37856;BME280;23694;43.274;26.924;2023-03-16T09:18:04;98348.03;;;6.77;98.14
37856;BME280;23694;43.274;26.924;2023-03-16T09:20:30;98340.13;;;6.78;97.81
37856;BME280;23694;43.274;26.924;2023-03-16T09:22:57;98338.31;;;6.66;98.70
37856;BME280;23694;43.274;26.924;2023-03-16T09:25:23;98328.50;;;6.84;97.09
37856;BME280;23694;43.274;26.924;2023-03-16T09:27:50;98342.75;;;6.78;97.41
37856;BME280;23694;43.274;26.924;2023-03-16T09:30:17;98343.59;;;6.64;98.02
37856;BME280;23694;43.274;26.924;2023-03-16T09:32:44;98347.00;;;6.79;96.93
37856;BME280;23694;43.274;26.924;2023-03-16T09:35:13;98355.56;;;6.81;96.29
37856;BME280;23694;43.274;26.924;2023-03-16T09:37:39;98351.75;;;6.87;95.81
37856;BME280;23694;43.274;26.924;2023-03-16T09:40:06;98350.06;;;6.86;94.55
37856;BME280;23694;43.274;26.924;2023-03-16T09:42:39;98362.81;;;6.76;96.31
37856;BME280;23694;43.274;26.924;2023-03-16T09:45:19;98363.00;;;6.87;95.38
37856;BME280;23694;43.274;26.924;2023-03-16T09:47:49;98366.63;;;6.85;95.50
37856;BME280;23694;43.274;26.924;2023-03-16T09:50:27;98375.25;;;6.85;95.19
37856;BME280;23694;43.274;26.924;2023-03-16T09:52:55;98376.56;;;6.92;95.09
37856;BME280;23694;43.274;26.924;2023-03-16T09:55:28;98374.16;;;6.75;95.39
37856;BME280;23694;43.274;26.924;2023-03-16T09:57:55;98385.13;;;6.80;94.83
37856;BME280;23694;43.274;26.924;2023-03-16T10:00:34;98378.94;;;6.54;94.83
37856;BME280;23694;43.274;26.924;2023-03-16T10:03:31;98393.97;;;6.63;95.32
37856;BME280;23694;43.274;26.924;2023-03-16T10:06:03;98391.94;;;6.68;94.35
37856;BME280;23694;43.274;26.924;2023-03-16T10:08:38;98388.97;;;6.60;94.35
37856;BME280;23694;43.274;26.924;2023-03-16T10:13:54;98404.28;;;6.51;93.63
37856;BME280;23694;43.274;26.924;2023-03-16T10:16:38;98401.69;;;6.51;92.83
37856;BME280;23694;43.274;26.924;2023-03-16T10:19:24;98397.66;;;6.45;93.74
37856;BME280;23694;43.274;26.924;2023-03-16T10:21:59;98398.50;;;6.46;93.89
37856;BME280;23694;43.274;26.924;2023-03-16T10:27:13;98401.38;;;6.41;95.16
37856;BME280;23694;43.274;26.924;2023-03-16T10:29:41;98394.13;;;6.18;97.23
37856;BME280;23694;43.274;26.924;2023-03-16T10:32:16;98397.38;;;6.21;95.90
37856;BME280;23694;43.274;26.924;2023-03-16T10:34:47;98400.81;;;6.36;94.44
37856;BME280;23694;43.274;26.924;2023-03-16T10:37:18;98405.63;;;6.28;95.61
37856;BME280;23694;43.274;26.924;2023-03-16T10:39:47;98398.03;;;6.39;94.66
37856;BME280;23694;43.274;26.924;2023-03-16T10:42:19;98406.66;;;6.40;93.73
37856;BME280;23694;43.274;26.924;2023-03-16T10:44:46;98403.50;;;6.20;94.62
37856;BME280;23694;43.274;26.924;2023-03-16T10:47:22;98406.47;;;6.14;97.82
37856;BME280;23694;43.274;26.924;2023-03-16T10:49:49;98410.56;;;6.18;95.35
37856;BME280;23694;43.274;26.924;2023-03-16T10:52:37;98418.16;;;6.21;94.62
37856;BME280;23694;43.274;26.924;2023-03-16T10:57:52;98418.09;;;6.23;93.12
37856;BME280;23694;43.274;26.924;2023-03-16T11:00:24;98414.34;;;6.13;93.36
37856;BME280;23694;43.274;26.924;2023-03-16T11:02:52;98407.69;;;6.23;93.58
37856;BME280;23694;43.274;26.924;2023-03-16T11:05:32;98417.22;;;6.08;94.07
37856;BME280;23694;43.274;26.924;2023-03-16T11:08:34;98411.94;;;6.24;95.48
37856;BME280;23694;43.274;26.924;2023-03-16T11:10:57;98409.16;;;6.27;95.70
37856;BME280;23694;43.274;26.924;2023-03-16T11:13:31;98412.78;;;6.24;96.03
37856;BME280;23694;43.274;26.924;2023-03-16T11:16:03;98420.59;;;6.39;95.22
37856;BME280;23694;43.274;26.924;2023-03-16T11:18:35;98404.81;;;6.42;94.02
37856;BME280;23694;43.274;26.924;2023-03-16T11:27:24;98421.75;;;6.63;93.69
37856;BME280;23694;43.274;26.924;2023-03-16T11:32:38;98414.22;;;6.58;93.06
37856;BME280;23694;43.274;26.924;2023-03-16T11:35:14;98413.00;;;6.78;92.98
37856;BME280;23694;43.274;26.924;2023-03-16T11:43:45;98422.50;;;6.79;92.15
37856;BME280;23694;43.274;26.924;2023-03-16T11:49:13;98435.78;;;6.60;92.75
37856;BME280;23694;43.274;26.924;2023-03-16T11:54:46;98434.53;;;6.38;94.57
37856;BME280;23694;43.274;26.924;2023-03-16T12:00:08;98439.78;;;6.52;92.91
37856;BME280;23694;43.274;26.924;2023-03-16T12:02:48;98443.31;;;6.51;93.06
37856;BME280;23694;43.274;26.924;2023-03-16T12:18:44;98451.06;;;6.36;94.81
37856;BME280;23694;43.274;26.924;2023-03-16T12:21:24;98461.31;;;6.40;95.58
37856;BME280;23694;43.274;26.924;2023-03-16T12:23:53;98463.06;;;6.39;95.25
37856;BME280;23694;43.274;26.924;2023-03-16T12:26:27;98464.28;;;6.48;95.11
37856;BME280;23694;43.274;26.924;2023-03-16T12:28:56;98470.50;;;6.45;94.81
37856;BME280;23694;43.274;26.924;2023-03-16T12:34:51;98475.53;;;6.48;95.73
37856;BME280;23694;43.274;26.924;2023-03-16T12:37:30;98478.91;;;6.50;95.59
37856;BME280;23694;43.274;26.924;2023-03-16T12:40:08;98476.53;;;6.46;94.42
37856;BME280;23694;43.274;26.924;2023-03-16T12:45:32;98490.53;;;6.29;95.24
37856;BME280;23694;43.274;26.924;2023-03-16T12:48:19;98497.31;;;6.31;95.58
37856;BME280;23694;43.274;26.924;2023-03-16T12:50:55;98498.34;;;6.29;95.76
37856;BME280;23694;43.274;26.924;2023-03-16T12:53:58;98490.81;;;6.24;94.92
37856;BME280;23694;43.274;26.924;2023-03-16T12:59:01;98502.66;;;6.14;96.26
37856;BME280;23694;43.274;26.924;2023-03-16T13:01:35;98511.31;;;6.15;96.35
37856;BME280;23694;43.274;26.924;2023-03-16T13:04:09;98506.69;;;6.20;97.14
37856;BME280;23694;43.274;26.924;2023-03-16T13:06:42;98518.34;;;6.13;96.90
37856;BME280;23694;43.274;26.924;2023-03-16T13:09:10;98525.97;;;6.16;97.64
37856;BME280;23694;43.274;26.924;2023-03-16T13:11:43;98515.94;;;6.10;97.73
37856;BME280;23694;43.274;26.924;2023-03-16T13:14:16;98520.53;;;6.20;97.29
37856;BME280;23694;43.274;26.924;2023-03-16T13:16:42;98529.06;;;6.22;96.05
37856;BME280;23694;43.274;26.924;2023-03-16T13:21:43;98526.13;;;6.28;96.53
37856;BME280;23694;43.274;26.924;2023-03-16T13:24:33;98524.91;;;6.34;96.41
37856;BME280;23694;43.274;26.924;2023-03-16T13:27:18;98539.50;;;6.36;95.85
37856;BME280;23694;43.274;26.924;2023-03-16T13:29:54;98537.09;;;6.33;96.32
37856;BME280;23694;43.274;26.924;2023-03-16T13:32:21;98543.78;;;6.38;96.01
37856;BME280;23694;43.274;26.924;2023-03-16T13:34:51;98546.97;;;6.43;95.74
37856;BME280;23694;43.274;26.924;2023-03-16T13:37:19;98550.59;;;6.40;95.30
37856;BME280;23694;43.274;26.924;2023-03-16T13:39:58;98554.72;;;6.28;95.00
37856;BME280;23694;43.274;26.924;2023-03-16T13:42:28;98557.50;;;6.25;95.16
37856;BME280;23694;43.274;26.924;2023-03-16T13:44:55;98558.94;;;6.15;95.62
37856;BME280;23694;43.274;26.924;2023-03-16T13:47:25;98563.81;;;6.21;97.15
37856;BME280;23694;43.274;26.924;2023-03-16T13:49:57;98566.31;;;6.23;97.02
37856;BME280;23694;43.274;26.924;2023-03-16T13:52:27;98560.38;;;6.21;97.13
37856;BME280;23694;43.274;26.924;2023-03-16T13:54:56;98563.22;;;6.16;97.40
37856;BME280;23694;43.274;26.924;2023-03-16T13:57:28;98573.81;;;5.97;99.20
37856;BME280;23694;43.274;26.924;2023-03-16T14:00:15;98571.63;;;6.06;99.48
37856;BME280;23694;43.274;26.924;2023-03-16T14:02:58;98574.97;;;6.08;98.42
37856;BME280;23694;43.274;26.924;2023-03-16T14:05:31;98581.03;;;6.08;97.91
37856;BME280;23694;43.274;26.924;2023-03-16T14:07:58;98585.97;;;6.13;97.31
37856;BME280;23694;43.274;26.924;2023-03-16T14:10:34;98587.06;;;6.09;97.30
37856;BME280;23694;43.274;26.924;2023-03-16T14:13:08;98589.16;;;6.02;97.44